createdAt,value
2023-05-23T00:01:00.930Z,17.30
2023-05-23T00:03:28.943Z,17.40
2023-05-23T00:05:56.822Z,17.30
2023-05-23T00:08:23.780Z,17.10
2023-05-23T00:10:50.765Z,17.30
2023-05-23T00:13:17.897Z,17.30
2023-05-23T00:15:45.392Z,17.30
2023-05-23T00:18:12.455Z,17.40
2023-05-23T00:20:44.102Z,17.30
2023-05-23T00:23:11.849Z,17.30
2023-05-23T00:25:41.524Z,17.30
2023-05-23T00:28:08.773Z,17.30
2023-05-23T00:30:36.225Z,17.30
2023-05-23T00:33:03.466Z,17.30
2023-05-23T00:35:30.536Z,17.30
2023-05-23T00:37:57.445Z,17.20
2023-05-23T00:40:25.016Z,17.30
2023-05-23T00:42:52.043Z,17.20
2023-05-23T00:45:19.038Z,17.20
2023-05-23T00:47:47.283Z,17.20
2023-05-23T00:50:15.856Z,17.20
2023-05-23T00:52:44.559Z,17.20
2023-05-23T00:55:12.041Z,17.20
2023-05-23T00:57:44.546Z,17.20
2023-05-23T01:00:12.653Z,17.10
2023-05-23T01:02:47.378Z,17.10
2023-05-23T01:05:17.785Z,17.10
2023-05-23T01:07:45.602Z,17.20
2023-05-23T01:10:13.436Z,17.10
2023-05-23T01:12:43.522Z,17.10
2023-05-23T01:15:12.132Z,17.00
2023-05-23T01:17:42.525Z,17.00
2023-05-23T01:20:17.057Z,17.00
2023-05-23T01:23:02.584Z,16.70
2023-05-23T01:25:42.122Z,16.80
2023-05-23T01:28:12.492Z,16.90
2023-05-23T01:30:40.093Z,16.90
2023-05-23T01:33:07.830Z,16.80
2023-05-23T01:35:35.085Z,16.90
2023-05-23T01:38:02.015Z,16.90
2023-05-23T01:40:29.168Z,16.80
2023-05-23T01:42:57.547Z,16.80
2023-05-23T01:45:26.705Z,16.80
2023-05-23T01:47:54.082Z,16.80
2023-05-23T01:50:21.298Z,16.60
2023-05-23T01:52:48.882Z,16.70
2023-05-23T01:55:18.858Z,16.70
2023-05-23T01:57:48.573Z,16.70
2023-05-23T02:00:15.709Z,16.70
2023-05-23T02:02:42.927Z,16.60
2023-05-23T02:05:11.325Z,16.50
2023-05-23T02:07:39.643Z,16.40
2023-05-23T02:10:08.354Z,16.60
2023-05-23T02:12:35.779Z,16.60
2023-05-23T02:15:02.723Z,16.60
2023-05-23T02:17:31.291Z,16.60
2023-05-23T02:19:58.330Z,16.60
2023-05-23T02:22:25.962Z,16.50
2023-05-23T02:24:52.991Z,16.50
2023-05-23T02:27:20.065Z,16.50
2023-05-23T02:29:47.053Z,16.50
2023-05-23T02:32:14.187Z,16.40
2023-05-23T02:34:41.600Z,16.50
2023-05-23T02:37:08.677Z,16.50
2023-05-23T02:39:37.323Z,16.50
2023-05-23T02:42:05.036Z,16.50
2023-05-23T02:44:32.709Z,16.40
2023-05-23T02:46:59.668Z,16.40
2023-05-23T02:49:26.867Z,16.40
2023-05-23T02:51:53.924Z,16.40
2023-05-23T02:54:21.112Z,16.40
2023-05-23T02:56:48.051Z,16.40
2023-05-23T02:59:15.080Z,16.40
2023-05-23T03:01:42.036Z,16.40
2023-05-23T03:04:09.082Z,16.40
2023-05-23T03:06:37.193Z,16.30
2023-05-23T03:09:04.309Z,16.30
2023-05-23T03:11:31.553Z,16.40
2023-05-23T03:13:59.939Z,16.30
2023-05-23T03:16:27.051Z,16.30
2023-05-23T03:18:54.541Z,16.30
2023-05-23T03:21:21.785Z,16.30
2023-05-23T03:23:49.573Z,16.30
2023-05-23T03:26:16.861Z,16.30
2023-05-23T03:28:43.907Z,16.20
2023-05-23T03:31:11.238Z,16.30
2023-05-23T03:33:40.356Z,16.40
2023-05-23T03:36:07.688Z,16.40
2023-05-23T03:38:34.725Z,16.40
2023-05-23T03:41:01.833Z,16.50
2023-05-23T03:43:28.922Z,16.50
2023-05-23T03:45:56.698Z,16.50
2023-05-23T03:48:23.791Z,16.40
2023-05-23T03:50:51.554Z,16.40
2023-05-23T03:53:18.891Z,16.50
2023-05-23T03:55:46.169Z,16.40
2023-05-23T03:58:13.234Z,16.50
2023-05-23T04:00:43.050Z,16.50
2023-05-23T04:03:14.860Z,16.50
2023-05-23T04:05:42.274Z,16.50
2023-05-23T04:08:10.269Z,16.60
2023-05-23T04:10:37.546Z,16.50
2023-05-23T04:13:04.807Z,16.50
2023-05-23T04:15:34.470Z,16.60
2023-05-23T04:18:09.388Z,16.50
2023-05-23T04:20:36.930Z,16.50
2023-05-23T04:23:05.206Z,16.60
2023-05-23T04:25:35.129Z,16.60
2023-05-23T04:28:06.863Z,16.60
2023-05-23T04:30:34.186Z,16.60
2023-05-23T04:33:01.250Z,16.70
2023-05-23T04:35:29.432Z,16.70
2023-05-23T04:37:56.990Z,16.70
2023-05-23T04:40:26.229Z,16.70
2023-05-23T04:43:29.472Z,16.70
2023-05-23T04:46:14.020Z,16.80
2023-05-23T04:48:44.872Z,16.90
2023-05-23T04:51:12.014Z,16.90
2023-05-23T04:53:45.793Z,16.90
2023-05-23T04:56:12.860Z,17.00
2023-05-23T04:58:44.478Z,17.00
2023-05-23T05:01:14.121Z,17.10
2023-05-23T05:03:41.168Z,17.20
2023-05-23T05:06:08.495Z,17.20
2023-05-23T05:08:36.918Z,17.30
2023-05-23T05:11:04.900Z,17.40
2023-05-23T05:13:31.961Z,17.50
2023-05-23T05:15:59.082Z,17.40
2023-05-23T05:18:27.405Z,17.50
2023-05-23T05:20:57.211Z,17.80
2023-05-23T05:23:30.527Z,17.90
2023-05-23T05:25:59.115Z,18.00
2023-05-23T05:28:26.216Z,18.10
2023-05-23T05:30:54.581Z,18.20
2023-05-23T05:33:26.016Z,18.30
2023-05-23T05:36:07.352Z,18.40
2023-05-23T05:38:34.418Z,18.60
2023-05-23T05:41:01.503Z,18.70
2023-05-23T05:43:33.788Z,18.80
2023-05-23T05:46:00.862Z,18.80
2023-05-23T05:48:28.715Z,18.90
2023-05-23T05:50:57.890Z,19.10
2023-05-23T05:53:24.957Z,19.10
2023-05-23T05:55:51.937Z,19.30
2023-05-23T05:58:19.297Z,19.20
2023-05-23T06:00:53.705Z,19.50
2023-05-23T06:03:22.129Z,19.50
2023-05-23T06:05:55.830Z,19.70
2023-05-23T06:08:22.778Z,19.80
2023-05-23T06:10:49.754Z,20.00
2023-05-23T06:13:17.355Z,20.10
2023-05-23T06:15:48.113Z,20.20
2023-05-23T06:18:15.235Z,20.20
2023-05-23T06:20:42.429Z,20.30
2023-05-23T06:23:14.258Z,20.30
2023-05-23T06:25:41.572Z,20.30
2023-05-23T06:28:09.192Z,20.50
2023-05-23T06:30:38.199Z,20.50
2023-05-23T06:33:05.267Z,20.60
2023-05-23T06:35:32.334Z,20.70
2023-05-23T06:38:01.357Z,20.70
2023-05-23T06:40:28.339Z,20.60
2023-05-23T06:42:55.885Z,20.60
2023-05-23T06:45:52.188Z,20.80
2023-05-23T06:48:19.203Z,21.10
2023-05-23T06:50:47.353Z,21.30
2023-05-23T06:53:18.923Z,21.30
2023-05-23T06:55:47.336Z,21.30
2023-05-23T06:58:17.084Z,21.40
2023-05-23T07:00:44.347Z,21.70
2023-05-23T07:03:25.128Z,21.70
2023-05-23T07:05:52.414Z,21.90
2023-05-23T07:08:22.014Z,22.00
2023-05-23T07:11:09.499Z,22.00
2023-05-23T07:13:45.044Z,22.10
2023-05-23T07:16:22.315Z,22.20
2023-05-23T07:19:08.275Z,22.40
2023-05-23T07:21:42.083Z,22.60
2023-05-23T07:24:09.857Z,22.70
2023-05-23T07:26:37.808Z,22.70
2023-05-23T07:29:06.122Z,22.70
2023-05-23T07:31:33.101Z,22.80
2023-05-23T07:34:00.512Z,23.00
2023-05-23T07:36:35.801Z,23.00
2023-05-23T07:39:04.255Z,23.10
2023-05-23T07:41:31.400Z,23.10
2023-05-23T07:43:58.341Z,23.10
2023-05-23T07:46:25.449Z,23.30
2023-05-23T07:48:52.394Z,23.30
2023-05-23T07:51:21.474Z,23.30
2023-05-23T07:53:50.649Z,23.40
2023-05-23T07:56:19.413Z,23.40
2023-05-23T07:58:46.424Z,23.40
2023-05-23T08:01:13.416Z,23.50
2023-05-23T08:04:02.150Z,23.60
2023-05-23T08:06:33.779Z,23.60
2023-05-23T08:09:06.840Z,23.70
2023-05-23T08:11:38.297Z,23.80
2023-05-23T08:14:06.819Z,23.90
2023-05-23T08:16:37.899Z,24.00
2023-05-23T08:19:13.577Z,24.00
2023-05-23T08:21:40.623Z,24.10
2023-05-23T08:24:07.518Z,24.10
2023-05-23T08:26:36.566Z,24.00
2023-05-23T08:29:05.764Z,24.10
2023-05-23T08:31:34.529Z,24.30
2023-05-23T08:34:04.453Z,24.30
2023-05-23T08:36:37.020Z,24.30
2023-05-23T08:39:06.198Z,24.30
2023-05-23T08:41:37.369Z,24.30
2023-05-23T08:44:09.545Z,24.30
2023-05-23T08:46:46.331Z,24.40
2023-05-23T08:49:22.769Z,24.40
2023-05-23T08:51:51.094Z,24.40
2023-05-23T08:54:22.383Z,24.50
2023-05-23T08:56:49.596Z,24.50
2023-05-23T08:59:16.698Z,24.50
2023-05-23T09:01:43.903Z,24.60
2023-05-23T09:04:12.976Z,24.60
2023-05-23T09:06:49.484Z,24.60
2023-05-23T09:09:16.566Z,24.60
2023-05-23T09:11:46.179Z,24.70
2023-05-23T09:14:15.556Z,24.80
2023-05-23T09:16:47.055Z,24.60
2023-05-23T09:19:16.118Z,24.70
2023-05-23T09:21:50.905Z,24.70
2023-05-23T09:24:36.854Z,24.70
2023-05-23T09:27:07.865Z,24.80
2023-05-23T09:29:40.593Z,24.80
2023-05-23T09:32:11.812Z,24.80
2023-05-23T09:34:43.176Z,24.90
2023-05-23T09:37:13.510Z,24.90
2023-05-23T09:39:40.533Z,24.90
2023-05-23T09:42:07.951Z,24.90
2023-05-23T09:44:41.284Z,24.70
2023-05-23T09:47:09.134Z,24.90
2023-05-23T09:49:38.794Z,24.90
2023-05-23T09:52:05.828Z,25.00
2023-05-23T09:54:32.821Z,25.00
2023-05-23T09:57:01.655Z,25.10
2023-05-23T09:59:29.939Z,25.20
2023-05-23T10:01:57.401Z,25.20
2023-05-23T10:04:25.228Z,25.30
2023-05-23T10:06:57.104Z,25.10
2023-05-23T10:09:25.260Z,25.00
2023-05-23T10:12:11.147Z,25.10
2023-05-23T10:14:41.166Z,25.00
2023-05-23T10:17:11.654Z,25.10
2023-05-23T10:19:44.984Z,25.10
2023-05-23T10:22:12.988Z,25.20
2023-05-23T10:24:40.457Z,25.40
2023-05-23T10:27:07.917Z,25.40
2023-05-23T10:29:35.661Z,25.30
2023-05-23T10:32:03.591Z,25.40
2023-05-23T10:34:33.703Z,25.40
2023-05-23T10:37:02.339Z,25.40
2023-05-23T10:39:48.362Z,25.40
2023-05-23T10:42:35.541Z,25.50
2023-05-23T10:45:21.694Z,25.50
2023-05-23T10:47:50.358Z,25.40
2023-05-23T10:50:31.996Z,25.40
2023-05-23T10:52:59.643Z,25.40
2023-05-23T10:55:28.195Z,25.50
2023-05-23T10:58:11.927Z,25.50
2023-05-23T11:00:39.228Z,25.50
2023-05-23T11:03:09.264Z,25.60
2023-05-23T11:05:38.847Z,25.60
2023-05-23T11:08:15.218Z,25.50
2023-05-23T11:10:54.423Z,25.50
2023-05-23T11:13:22.029Z,25.60
2023-05-23T11:15:49.195Z,25.60
2023-05-23T11:18:24.109Z,25.50
2023-05-23T11:20:54.264Z,25.60
2023-05-23T11:23:22.215Z,25.60
2023-05-23T11:25:50.583Z,25.50
2023-05-23T11:28:18.328Z,25.40
2023-05-23T11:30:48.037Z,25.50
2023-05-23T11:33:16.573Z,25.70
2023-05-23T11:35:44.879Z,25.70
2023-05-23T11:38:12.062Z,25.70
2023-05-23T11:40:40.144Z,25.60
2023-05-23T11:43:08.488Z,25.70
2023-05-23T11:45:36.841Z,25.60
2023-05-23T11:48:11.897Z,25.60
2023-05-23T11:50:49.237Z,25.70
2023-05-23T11:53:18.770Z,25.80
2023-05-23T11:55:49.642Z,25.80
2023-05-23T11:58:16.747Z,25.80
2023-05-23T12:00:44.952Z,25.80
2023-05-23T12:03:12.155Z,25.80
2023-05-23T12:05:39.258Z,25.80
2023-05-23T12:08:06.283Z,25.80
2023-05-23T12:10:33.230Z,25.70
2023-05-23T12:13:00.961Z,25.80
2023-05-23T12:15:28.584Z,25.80
2023-05-23T12:17:56.742Z,25.70
2023-05-23T12:20:24.280Z,25.60
2023-05-23T12:22:53.915Z,25.60
2023-05-23T12:25:23.615Z,25.80
2023-05-23T12:27:50.770Z,25.90
2023-05-23T12:30:17.903Z,25.90
2023-05-23T12:32:46.150Z,25.80
2023-05-23T12:35:14.176Z,25.90
2023-05-23T12:37:43.186Z,25.90
2023-05-23T12:40:11.407Z,26.00
2023-05-23T12:42:46.981Z,26.00
2023-05-23T12:45:15.056Z,25.90
2023-05-23T12:47:42.037Z,26.00
2023-05-23T12:50:09.729Z,26.00
2023-05-23T12:52:37.359Z,26.00
2023-05-23T12:55:04.559Z,26.00
2023-05-23T12:57:32.087Z,26.10
2023-05-23T12:59:59.249Z,26.10
2023-05-23T13:02:26.987Z,26.10
2023-05-23T13:04:53.970Z,26.20
2023-05-23T13:07:21.267Z,26.10
2023-05-23T13:09:48.250Z,26.10
2023-05-23T13:12:15.501Z,26.00
2023-05-23T13:14:42.508Z,26.10
2023-05-23T13:17:09.734Z,26.10
2023-05-23T13:19:37.181Z,26.10
2023-05-23T13:22:04.873Z,26.00
2023-05-23T13:24:31.786Z,26.00
2023-05-23T13:26:58.888Z,26.00
2023-05-23T13:29:28.165Z,26.10
2023-05-23T13:31:55.514Z,26.10
2023-05-23T13:34:22.704Z,26.10
2023-05-23T13:36:49.738Z,26.20
2023-05-23T13:39:18.951Z,26.20
2023-05-23T13:41:47.602Z,26.20
2023-05-23T13:44:14.813Z,26.20
2023-05-23T13:46:43.822Z,26.20
2023-05-23T13:49:11.010Z,26.20
2023-05-23T13:51:38.065Z,26.10
2023-05-23T13:54:05.085Z,26.10
2023-05-23T13:56:32.252Z,26.10
2023-05-23T13:58:59.320Z,26.10
2023-05-23T14:01:26.359Z,26.10
2023-05-23T14:03:53.608Z,26.10
2023-05-23T14:06:21.001Z,26.20
2023-05-23T14:08:47.945Z,26.10
2023-05-23T14:11:14.923Z,26.20
2023-05-23T14:13:41.946Z,26.20
2023-05-23T14:16:09.243Z,26.10
2023-05-23T14:18:36.291Z,26.10
2023-05-23T14:21:03.289Z,26.20
2023-05-23T14:23:30.276Z,26.20
2023-05-23T14:25:57.324Z,26.20
2023-05-23T14:28:24.286Z,26.20
2023-05-23T14:30:51.336Z,26.20
2023-05-23T14:33:18.937Z,26.10
2023-05-23T14:35:45.904Z,26.10
2023-05-23T14:38:12.802Z,26.10
2023-05-23T14:40:39.775Z,26.10
2023-05-23T14:43:06.929Z,25.80
2023-05-23T14:45:34.146Z,25.90
2023-05-23T14:48:01.071Z,26.00
2023-05-23T14:50:28.090Z,26.00
2023-05-23T14:52:55.126Z,26.10
2023-05-23T14:55:22.125Z,26.20
2023-05-23T14:57:49.364Z,26.10
2023-05-23T15:00:16.532Z,26.10
2023-05-23T15:02:43.538Z,26.10
2023-05-23T15:05:10.613Z,25.90
2023-05-23T15:07:38.785Z,26.00
2023-05-23T15:10:06.698Z,26.10
2023-05-23T15:12:34.042Z,26.00
2023-05-23T15:15:04.190Z,26.00
2023-05-23T15:17:32.675Z,25.80
2023-05-23T15:20:00.109Z,25.80
2023-05-23T15:24:59.514Z,25.90
2023-05-23T15:27:26.906Z,25.90
2023-05-23T15:29:53.861Z,25.90
2023-05-23T15:32:20.827Z,25.90
2023-05-23T15:34:47.835Z,25.90
2023-05-23T15:37:14.855Z,25.80
2023-05-23T15:39:41.868Z,25.70
2023-05-23T15:42:08.770Z,25.60
2023-05-23T15:44:35.846Z,25.60
2023-05-23T15:47:02.955Z,25.50
2023-05-23T15:49:29.944Z,25.50
2023-05-23T15:51:56.904Z,25.40
2023-05-23T15:54:24.101Z,25.40
2023-05-23T15:56:51.353Z,25.40
2023-05-23T15:59:18.536Z,25.40
2023-05-23T16:01:46.057Z,25.40
2023-05-23T16:04:13.364Z,25.30
2023-05-23T16:06:40.565Z,25.20
2023-05-23T16:09:07.689Z,25.10
2023-05-23T16:11:34.706Z,25.10
2023-05-23T16:14:01.889Z,25.00
2023-05-23T16:16:28.888Z,25.00
2023-05-23T16:18:56.035Z,24.90
2023-05-23T16:21:23.081Z,24.90
2023-05-23T16:23:50.176Z,24.80
2023-05-23T16:26:17.654Z,24.70
2023-05-23T16:28:45.008Z,24.70
2023-05-23T16:31:16.880Z,24.60
2023-05-23T16:33:44.452Z,24.60
2023-05-23T16:36:11.439Z,24.60
2023-05-23T16:38:38.360Z,24.50
2023-05-23T16:41:05.425Z,24.50
2023-05-23T16:43:33.429Z,24.50
2023-05-23T16:46:00.483Z,24.40
2023-05-23T16:48:28.936Z,24.40
2023-05-23T16:50:56.855Z,24.30
2023-05-23T16:53:23.916Z,24.20
2023-05-23T16:55:50.885Z,24.10
2023-05-23T16:58:20.181Z,24.00
2023-05-23T17:00:48.108Z,23.90
2023-05-23T17:03:15.230Z,23.90
2023-05-23T17:05:42.568Z,23.80
2023-05-23T17:08:09.786Z,23.80
2023-05-23T17:10:36.965Z,23.70
2023-05-23T17:13:04.062Z,23.70
2023-05-23T17:15:31.360Z,23.60
2023-05-23T17:17:58.913Z,23.60
2023-05-23T17:20:27.106Z,23.50
2023-05-23T17:22:54.813Z,23.50
2023-05-23T17:25:22.143Z,23.50
2023-05-23T17:27:49.334Z,23.40
2023-05-23T17:30:18.673Z,23.40
2023-05-23T17:32:50.108Z,23.40
2023-05-23T17:35:17.391Z,23.40
2023-05-23T17:37:45.300Z,23.40
2023-05-23T17:40:12.717Z,23.30
2023-05-23T17:42:40.598Z,23.20
2023-05-23T17:45:09.516Z,23.20
2023-05-23T17:47:36.895Z,23.20
2023-05-23T17:50:04.667Z,23.00
2023-05-23T17:52:31.982Z,22.80
2023-05-23T17:54:58.941Z,22.70
2023-05-23T17:57:28.026Z,22.50
2023-05-23T17:59:55.157Z,22.30
2023-05-23T18:02:22.108Z,22.00
2023-05-23T18:04:49.191Z,21.80
2023-05-23T18:07:19.315Z,21.60
2023-05-23T18:09:47.175Z,21.50
2023-05-23T18:12:14.886Z,21.30
2023-05-23T18:14:42.338Z,21.40
2023-05-23T18:17:09.998Z,21.30
2023-05-23T18:19:37.372Z,21.30
2023-05-23T18:22:04.780Z,21.30
2023-05-23T18:24:31.743Z,21.30
2023-05-23T18:26:58.878Z,21.10
2023-05-23T18:29:26.344Z,21.10
2023-05-23T18:31:53.474Z,21.00
2023-05-23T18:34:21.178Z,20.90
2023-05-23T18:36:48.221Z,20.90
2023-05-23T18:39:15.824Z,20.90
2023-05-23T18:41:42.939Z,20.70
2023-05-23T18:44:09.902Z,20.70
2023-05-23T18:46:37.017Z,20.60
2023-05-23T18:49:05.032Z,20.50
2023-05-23T18:51:32.578Z,20.50
2023-05-23T18:53:59.702Z,20.60
2023-05-23T18:56:27.212Z,20.50
2023-05-23T18:58:54.266Z,20.40
2023-05-23T19:01:21.806Z,20.50
2023-05-23T19:03:48.989Z,20.50
2023-05-23T19:06:16.137Z,20.60
2023-05-23T19:08:43.373Z,20.80
2023-05-23T19:11:10.905Z,20.80
2023-05-23T19:13:38.041Z,20.90
2023-05-23T19:16:05.154Z,20.80
2023-05-23T19:18:32.306Z,20.80
2023-05-23T19:20:59.328Z,20.70
2023-05-23T19:23:26.601Z,20.70
2023-05-23T19:25:53.565Z,20.60
2023-05-23T19:28:20.461Z,20.50
2023-05-23T19:30:47.647Z,20.40
2023-05-23T19:33:15.767Z,20.40
2023-05-23T19:35:43.160Z,20.40
2023-05-23T19:38:10.296Z,20.20
2023-05-23T19:40:37.252Z,20.10
2023-05-23T19:43:04.375Z,20.10
2023-05-23T19:45:31.729Z,20.10
2023-05-23T19:47:58.874Z,20.10
2023-05-23T19:50:26.158Z,20.10
2023-05-23T19:52:53.208Z,20.10
2023-05-23T19:55:20.317Z,20.10
2023-05-23T19:57:47.310Z,20.10
2023-05-23T20:00:14.891Z,20.10
2023-05-23T20:02:43.051Z,20.00
2023-05-23T20:05:10.039Z,20.00
2023-05-23T20:07:37.243Z,20.00
2023-05-23T20:10:04.361Z,20.00
2023-05-23T20:12:31.509Z,20.00
2023-05-23T20:14:58.548Z,20.00
2023-05-23T20:17:25.566Z,20.00
2023-05-23T20:19:52.712Z,20.10
2023-05-23T20:22:19.684Z,20.10
2023-05-23T20:24:46.929Z,20.10
2023-05-23T20:27:14.085Z,20.00
2023-05-23T20:29:41.395Z,20.00
2023-05-23T20:32:08.674Z,20.00
2023-05-23T20:34:35.827Z,20.10
2023-05-23T20:37:03.730Z,20.10
2023-05-23T20:39:31.086Z,20.00
2023-05-23T20:41:58.083Z,20.00
2023-05-23T20:44:25.008Z,20.00
2023-05-23T20:46:52.088Z,20.00
2023-05-23T20:49:19.045Z,19.90
2023-05-23T20:51:46.018Z,20.00
2023-05-23T20:54:13.045Z,19.90
2023-05-23T20:56:40.113Z,19.80
2023-05-23T20:59:07.149Z,19.80
2023-05-23T21:01:34.308Z,19.70
2023-05-23T21:04:01.305Z,19.90
2023-05-23T21:06:28.250Z,19.70
2023-05-23T21:08:55.212Z,19.70
2023-05-23T21:11:23.262Z,19.70
2023-05-23T21:13:50.198Z,19.60
2023-05-23T21:16:17.279Z,19.70
2023-05-23T21:18:44.229Z,19.70
2023-05-23T21:21:11.479Z,19.60
2023-05-23T21:23:38.462Z,19.40
2023-05-23T21:26:05.601Z,19.40
2023-05-23T21:28:32.551Z,19.30
2023-05-23T21:31:00.076Z,19.40
2023-05-23T21:33:27.137Z,19.30
2023-05-23T21:35:54.570Z,19.30
2023-05-23T21:38:21.474Z,19.40
2023-05-23T21:40:48.413Z,19.40
2023-05-23T21:43:15.479Z,19.40
2023-05-23T21:45:42.481Z,19.30
2023-05-23T21:48:09.397Z,19.40
2023-05-23T21:50:36.390Z,19.30
2023-05-23T21:53:03.533Z,19.30
2023-05-23T21:55:30.570Z,19.20
2023-05-23T21:57:57.514Z,19.20
2023-05-23T22:00:27.179Z,19.10
2023-05-23T22:02:54.189Z,19.20
2023-05-23T22:05:21.437Z,19.30
2023-05-23T22:07:48.466Z,19.40
2023-05-23T22:10:15.646Z,19.40
2023-05-23T22:12:42.656Z,19.40
2023-05-23T22:15:09.839Z,19.40
2023-05-23T22:17:36.886Z,19.40
2023-05-23T22:20:05.877Z,19.40
2023-05-23T22:22:32.794Z,19.30
2023-05-23T22:25:00.420Z,19.30
2023-05-23T22:27:27.604Z,19.30
2023-05-23T22:29:54.588Z,19.20
2023-05-23T22:32:21.576Z,19.30
2023-05-23T22:34:48.720Z,19.20
2023-05-23T22:37:16.657Z,19.20
2023-05-23T22:39:43.680Z,19.20
2023-05-23T22:42:10.675Z,19.20
2023-05-23T22:44:37.615Z,19.20
2023-05-23T22:47:04.701Z,19.10
2023-05-23T22:49:32.119Z,19.20
2023-05-23T22:51:59.751Z,19.20
2023-05-23T22:54:26.771Z,19.20
2023-05-23T22:56:54.426Z,19.10
2023-05-23T22:59:21.377Z,18.80
2023-05-23T23:01:48.342Z,18.90
2023-05-23T23:04:17.273Z,18.80
2023-05-23T23:06:44.563Z,18.90
2023-05-23T23:09:11.735Z,18.90
2023-05-23T23:11:38.891Z,19.00
2023-05-23T23:14:05.823Z,19.00
2023-05-23T23:16:32.834Z,18.90
2023-05-23T23:18:59.848Z,18.90
2023-05-23T23:21:26.880Z,18.90
2023-05-23T23:23:53.943Z,18.70
2023-05-23T23:26:22.157Z,18.80
2023-05-23T23:28:49.158Z,18.80
2023-05-23T23:31:16.340Z,18.80
2023-05-23T23:33:43.375Z,18.90
2023-05-23T23:36:10.641Z,18.90
2023-05-23T23:38:38.243Z,18.90
2023-05-23T23:41:05.226Z,18.90
2023-05-23T23:43:32.387Z,18.90
2023-05-23T23:45:59.366Z,19.00
2023-05-23T23:48:26.403Z,18.90
2023-05-23T23:50:53.401Z,18.90
2023-05-23T23:53:21.513Z,18.90
2023-05-23T23:55:48.848Z,18.90
2023-05-23T23:58:16.168Z,18.90
